Last 7 Days

Gordon Valley 3

Hourly Data | America/Los_Angeles
as of 8/12/22 5:45 AM PDT
Date & Time Temp (°F) RH (%) Dew Pt (°F) Wind Spd (mph) Wind Dir (°) Wind Gust (mph) Wind Gst Dir (°) Latest Rain (In) Daily Rain (In) Daily Min Temp (°F) Daily Max Temp (°F)
8/12/22 - 0500 50.2 91 47.9 0.1 NE | 46 3.1 NNE | 16 0.00 0.00 49.6 54.2
8/12/22 - 0400 51.0 90 48.1 0.1 NNE | 33 2.4 NE | 41 0.00 0.00 50.3 54.2
8/12/22 - 0300 51.9 88 48.4 0.5 NNE | 30 3.4 NNE | 17 0.00 0.00 51.1 54.2
8/12/22 - 0200 53.3 86 49.1 0.2 N | 11 2.4 NE | 36 0.00 0.00 52.4 54.2
8/12/22 - 0100 54.8 82 49.4 0.1 NE | 44 2.4 NNE | 31 0.00 0.00 49.6 91.6
8/12/22 - 0000 59.7 75 51.9 1.0 ENE | 62 4.4 SE | 127 0.00 0.00 49.6 91.6
8/11/22 - 2300 62.8 68 52.0 3.5 SE | 146 7.8 S | 186 0.00 0.00 49.6 91.6
8/11/22 - 2200 64.7 58 49.7 2.0 S | 169 7.1 S | 170 0.00 0.00 49.6 91.6
8/11/22 - 2100 70.2 46 48.6 2.2 SSW | 213 8.1 WSW | 253 0.00 0.00 49.6 91.6
8/11/22 - 2000 74.8 41 49.5 9.5 SW | 226 16.5 SW | 218 0.00 0.00 49.6 91.6
8/11/22 - 1900 81.1 33 49.1 10.5 WSW | 238 17.8 SW | 234 0.00 0.00 49.6 91.6
8/11/22 - 1800 85.8 28 48.6 10.1 SW | 233 17.8 WSW | 237 0.00 0.00 49.6 91.6
8/11/22 - 1700 86.4 32 53.1 11.2 SW | 236 18.5 WSW | 240 0.00 0.00 49.6 91.6
8/11/22 - 1600 89.4 28 52.2 10.7 SW | 236 18.8 SW | 234 0.00 0.00 49.6 91.6
8/11/22 - 1500 90.4 23 47.4 5.6 W | 266 17.2 WNW | 282 0.00 0.00 49.6 91.6
8/11/22 - 1400 89.2 23 46.8 5.6 W | 269 13.8 WSW | 252 0.00 0.00 49.6 90.4
8/11/22 - 1300 86.7 32 53.0 6.0 SSW | 194 11.5 S | 172 0.00 0.00 49.6 88.3
8/11/22 - 1200 82.7 38 54.7 9.0 SSW | 193 15.5 SSE | 159 0.00 0.00 49.6 84.6
8/11/22 - 1100 79.2 43 55.0 9.3 S | 188 14.8 SSW | 205 0.00 0.00 49.6 81.3
8/11/22 - 1000 76.0 48 55.2 3.8 SSE | 162 9.8 S | 172 0.00 0.00 49.6 78.3
8/11/22 - 0900 70.4 61 56.2 2.4 S | 174 6.1 S | 182 0.00 0.00 49.6 73.0
8/11/22 - 0800 60.8 79 54.2 0.4 S | 190 3.1 SSW | 192 0.00 0.00 49.6 68.4
8/11/22 - 0700 51.1 92 49.0 0.1 NNE | 25 2.7 SE | 129 0.00 0.00 49.6 57.0
8/11/22 - 0600 51.4 93 49.4 0.3 NNE | 29 2.4 N | 1 0.00 0.00 50.2 57.0
8/11/22 - 0500 51.8 90 49.1 0.3 NNE | 16 2.7 E | 92 0.00 0.00 51.1 57.0
8/11/22 - 0400 53.2 90 50.4 0.3 NE | 44 2.4 NNE | 28 0.00 0.00 52.5 57.0
8/11/22 - 0300 55.2 92 52.8 0.3 NNE | 15 2.4 NE | 35 0.00 0.00 54.4 57.0
8/11/22 - 0200 56.3 87 52.6 0.5 N | 2 3.4 NNE | 17 0.00 0.00 55.9 57.0
8/11/22 - 0100 56.9 86 52.8 0.5 NNE | 19 3.8 NNE | 18 0.00 0.00 53.3 87.8
8/11/22 - 0000 59.1 80 52.9 0.3 NNE | 12 4.4 N | 10 0.00 0.00 53.3 87.8
8/10/22 - 2300 62.1 69 51.9 0.6 NNE | 16 4.1 N | 7 0.00 0.00 53.3 87.8
8/10/22 - 2200 65.6 60 51.3 0.7 SW | 219 2.7 W | 268 0.00 0.00 53.3 87.8
8/10/22 - 2100 72.3 48 51.7 1.2 SE | 128 4.4 SE | 141 0.00 0.00 53.3 87.8
8/10/22 - 2000 77.7 42 52.5 3.6 SSW | 210 9.8 WSW | 239 0.00 0.00 53.3 87.8
8/10/22 - 1900 82.0 38 53.7 7.2 SW | 231 13.8 SW | 234 0.00 0.00 53.3 87.8
8/10/22 - 1800 83.6 35 53.4 10.0 SW | 236 16.8 SW | 234 0.00 0.00 53.3 87.8
8/10/22 - 1700 84.8 34 53.6 11.6 WSW | 237 17.5 WSW | 257 0.00 0.00 53.3 87.8
8/10/22 - 1600 86.3 32 53.4 10.9 SW | 234 17.8 WSW | 237 0.00 0.00 53.3 87.8
8/10/22 - 1500 86.4 32 53.2 10.2 SW | 232 17.8 SW | 228 0.00 0.00 53.3 87.8
8/10/22 - 1400 84.6 35 53.9 9.8 SW | 230 15.5 SW | 230 0.00 0.00 53.3 86.6
8/10/22 - 1300 82.9 36 53.1 9.8 SW | 222 16.5 WSW | 241 0.00 0.00 53.3 83.8
8/10/22 - 1200 79.9 38 52.1 7.0 WSW | 250 14.2 SW | 224 0.00 0.00 53.3 82.6
8/10/22 - 1100 76.2 42 51.4 4.3 W | 276 11.1 WSW | 245 0.00 0.00 53.3 77.7
8/10/22 - 1000 73.2 48 52.2 3.0 NW | 322 9.1 NNW | 343 0.00 0.00 53.3 75.0
8/10/22 - 0900 69.4 57 53.5 1.9 SW | 217 7.1 WSW | 258 0.00 0.00 53.3 72.0
8/10/22 - 0800 61.1 75 52.9 0.3 SSE | 151 3.8 E | 81 0.00 0.00 53.3 66.8
8/10/22 - 0700 54.2 89 51.1 0.2 NNW | 346 3.1 NW | 323 0.00 0.00 53.3 62.0
8/10/22 - 0600 57.6 82 52.1 1.7 SSE | 166 5.1 SSE | 163 0.00 0.00 54.0 62.0
8/10/22 - 0500 57.2 83 52.0 2.6 WSW | 256 8.8 W | 279 0.00 0.00 54.0 62.0
8/10/22 - 0400 55.7 87 52.0 0.3 SSW | 207 4.1 SSE | 166 0.00 0.00 54.4 62.0
8/10/22 - 0300 59.5 78 52.6 2.2 S | 177 7.1 WSW | 240 0.00 0.00 57.1 62.0
8/10/22 - 0200 61.2 73 52.5 3.6 WSW | 252 6.8 WSW | 240 0.00 0.00 60.4 62.0
8/10/22 - 0100 60.4 78 53.4 3.1 WSW | 238 6.4 SW | 230 0.00 0.00 52.6 85.3
8/10/22 - 0000 61.1 78 54.4 4.4 SSW | 208 7.1 SW | 222 0.00 0.00 52.6 85.3
8/9/22 - 2300 62.8 73 53.9 2.6 SW | 223 7.4 SW | 227 0.00 0.00 52.6 85.3
8/9/22 - 2200 64.6 65 52.8 2.3 SSW | 205 6.4 SSW | 196 0.00 0.00 52.6 85.3
8/9/22 - 2100 68.7 56 52.6 5.4 SW | 227 10.8 SW | 223 0.00 0.00 52.6 85.3
8/9/22 - 2000 72.7 49 52.3 7.0 WSW | 237 14.2 SW | 232 0.00 0.00 52.6 85.3
8/9/22 - 1900 77.8 40 51.3 6.9 SW | 231 13.5 SW | 229 0.00 0.00 52.6 85.3
8/9/22 - 1800 79.7 37 51.0 9.0 WSW | 241 16.5 SW | 234 0.00 0.00 52.6 85.3
8/9/22 - 1700 82.2 31 48.8 10.3 WSW | 237 20.9 WSW | 248 0.00 0.00 52.6 85.3
8/9/22 - 1600 83.7 29 47.8 12.5 SW | 235 20.9 WSW | 244 0.00 0.00 52.6 85.3
8/9/22 - 1500 84.1 29 48.0 11.5 SW | 232 19.8 SSW | 209 0.00 0.00 52.6 85.3
8/9/22 - 1400 82.3 34 50.8 11.6 SW | 236 19.8 SW | 233 0.00 0.00 52.6 83.7
8/9/22 - 1300 81.4 35 51.5 11.0 SW | 233 17.5 SW | 228 0.00 0.00 52.6 82.5
8/9/22 - 1200 80.1 38 52.2 9.5 SW | 229 15.2 SSW | 199 0.00 0.00 52.6 81.7
8/9/22 - 1100 78.0 41 52.2 8.9 SW | 225 15.5 SW | 225 0.00 0.00 52.6 79.3
8/9/22 - 1000 75.1 47 53.4 6.4 SW | 215 11.8 SSW | 208 0.00 0.00 52.6 76.8
8/9/22 - 0900 70.1 57 54.2 4.2 SSW | 209 7.8 SSE | 156 0.00 0.00 52.6 73.1
8/9/22 - 0800 61.0 78 53.9 1.1 E | 83 4.4 SSW | 198 0.00 0.00 52.6 66.6
8/9/22 - 0700 53.7 91 51.0 0.6 NNE | 33 3.4 E | 92 0.00 0.00 52.6 57.3
8/9/22 - 0600 55.8 86 51.6 0.3 N | 352 3.1 NE | 43 0.00 0.00 54.2 57.3
8/9/22 - 0500 55.5 84 50.8 0.9 SSW | 192 4.1 SW | 223 0.00 0.00 54.5 57.3
8/9/22 - 0400 55.1 84 50.3 0.3 E | 92 3.1 SE | 126 0.00 0.00 54.7 56.9
8/9/22 - 0300 55.6 85 51.2 0.4 NNE | 27 3.1 NNE | 17 0.00 0.00 55.2 56.9
8/9/22 - 0200 56.4 82 50.9 0.4 NNE | 25 3.4 NNE | 28 0.00 0.00 55.4 56.9
8/9/22 - 0100 57.6 79 51.3 0.2 NNE | 33 2.4 NE | 37 0.00 0.00 51.0 87.7
8/9/22 - 0000 59.4 74 51.2 0.5 NE | 36 3.1 NNE | 24 0.00 0.00 51.0 87.7
8/8/22 - 2300 63.3 65 51.2 0.8 WSW | 242 5.1 SW | 228 0.00 0.00 51.0 87.7
8/8/22 - 2200 66.8 57 51.0 1.1 SSW | 200 4.8 W | 261 0.00 0.00 51.0 87.7
8/8/22 - 2100 70.6 50 50.9 2.4 SSW | 205 9.8 SSW | 202 0.00 0.00 51.0 87.7
8/8/22 - 2000 76.9 40 50.5 5.7 SW | 215 11.1 SW | 227 0.00 0.00 51.0 87.7
8/8/22 - 1900 81.2 34 49.8 8.4 WSW | 240 15.2 SW | 230 0.00 0.00 51.0 87.7
8/8/22 - 1800 83.1 32 50.6 10.9 WSW | 241 18.8 WSW | 248 0.00 0.00 51.0 87.7
8/8/22 - 1700 85.7 30 51.0 11.8 WSW | 237 18.2 WSW | 241 0.00 0.00 51.0 87.7
8/8/22 - 1600 86.1 31 51.8 12.3 SW | 235 18.8 WSW | 243 0.00 0.00 51.0 87.7
8/8/22 - 1500 86.4 29 50.6 12.0 SW | 235 18.2 WSW | 244 0.00 0.00 51.0 87.3
8/8/22 - 1400 85.8 30 51.0 10.6 WSW | 238 17.2 SW | 236 0.00 0.00 51.0 86.9
8/8/22 - 1300 84.4 33 52.6 10.4 SW | 230 17.2 SW | 218 0.00 0.00 51.0 85.4
8/8/22 - 1200 83.6 35 53.1 7.3 SSW | 207 13.5 SSW | 212 0.00 0.00 51.0 84.9
8/8/22 - 1100 80.5 37 51.5 5.1 WSW | 238 10.1 S | 175 0.00 0.00 51.0 82.4
8/8/22 - 1000 77.0 40 50.8 5.3 NW | 322 13.2 NNW | 347 0.00 0.00 51.0 78.1
8/8/22 - 0900 71.8 54 54.1 2.1 S | 170 5.4 SSW | 193 0.00 0.00 51.0 75.4
8/8/22 - 0800 62.5 73 53.6 0.6 S | 177 3.4 SSW | 209 0.00 0.00 51.0 67.5
8/8/22 - 0700 52.2 92 50.0 0.3 ENE | 57 3.1 ESE | 120 0.00 0.00 51.0 56.7
8/8/22 - 0600 52.1 91 49.6 0.7 NNE | 21 4.1 NE | 34 0.00 0.00 51.0 56.7
8/8/22 - 0500 53.3 89 50.2 0.8 ENE | 74 3.4 NNW | 332 0.00 0.00 52.5 56.7
8/8/22 - 0400 54.3 88 50.9 0.5 N | 3 3.4 NNW | 335 0.00 0.00 53.6 56.7
8/8/22 - 0300 54.2 86 50.1 0.7 NNE | 18 5.8 E | 80 0.00 0.00 53.6 56.7
8/8/22 - 0200 55.4 83 50.5 0.2 N | 6 2.7 NE | 39 0.00 0.00 54.4 56.7
8/8/22 - 0100 56.9 80 50.7 0.6 NE | 52 3.1 NNE | 33 0.00 0.00 49.7 89.9
8/8/22 - 0000 58.4 76 50.9 0.5 NNE | 20 2.7 NNW | 345 0.00 0.00 49.7 89.9
8/7/22 - 2300 60.8 70 50.9 0.3 N | 5 3.1 N | 8 0.00 0.00 49.7 89.9
8/7/22 - 2200 65.8 59 51.0 1.3 SSE | 157 4.8 S | 176 0.00 0.00 49.7 89.9
8/7/22 - 2100 70.5 50 51.1 2.3 SSE | 163 5.8 S | 188 0.00 0.00 49.7 89.9
8/7/22 - 2000 75.6 42 51.1 5.0 SW | 222 9.8 W | 260 0.00 0.00 49.7 89.9
8/7/22 - 1900 80.6 36 51.4 7.4 WSW | 237 16.2 SW | 224 0.00 0.00 49.7 89.9
8/7/22 - 1800 83.3 35 52.5 10.2 WSW | 242 17.5 SW | 232 0.00 0.00 49.7 89.9
8/7/22 - 1700 86.2 31 52.2 10.3 WSW | 239 17.5 SSW | 211 0.00 0.00 49.7 89.9
8/7/22 - 1600 86.9 30 52.2 11.0 SW | 234 17.2 SW | 219 0.00 0.00 49.7 89.9
8/7/22 - 1500 88.4 28 51.6 9.2 SW | 232 15.5 WSW | 240 0.00 0.00 49.7 89.9
8/7/22 - 1400 86.3 31 52.5 9.8 SW | 236 16.8 SW | 227 0.00 0.00 49.7 87.1
8/7/22 - 1300 84.6 32 51.9 8.1 SW | 222 13.8 SW | 230 0.00 0.00 49.7 86.4
8/7/22 - 1200 82.3 35 52.0 6.1 SSW | 208 13.2 SSW | 213 0.00 0.00 49.7 83.4
8/7/22 - 1100 78.6 41 53.0 3.4 SSW | 202 11.1 S | 180 0.00 0.00 49.7 80.9
8/7/22 - 1000 73.8 49 53.5 2.6 SSW | 205 8.8 ENE | 63 0.00 0.00 49.7 75.8
8/7/22 - 0900 68.6 58 53.1 1.4 SSW | 208 5.4 NW | 320 0.00 0.00 49.7 71.2
8/7/22 - 0800 62.1 70 52.0 0.5 S | 188 2.4 S | 188 0.00 0.00 49.7 67.6
8/7/22 - 0700 51.1 89 48.1 0.0 NE | 37 1.7 NNE | 31 0.00 0.00 49.7 56.2
8/7/22 - 0600 51.0 89 47.9 0.0 N | 0 0.0 N | 7 0.00 0.00 49.7 56.2
8/7/22 - 0500 52.0 86 47.8 0.0 SE | 131 2.1 SE | 139 0.00 0.00 51.5 56.2
8/7/22 - 0400 52.4 84 47.6 0.1 NNE | 26 2.1 NNE | 30 0.00 0.00 51.6 56.2
8/7/22 - 0300 54.0 81 48.2 0.1 NE | 34 3.4 NNW | 336 0.00 0.00 53.3 56.2
8/7/22 - 0200 55.5 79 49.2 0.3 NNE | 17 2.7 NNE | 13 0.00 0.00 54.5 56.2
8/7/22 - 0100 57.0 76 49.4 0.1 WNW | 296 2.4 SW | 229 0.00 0.00 55.4 86.5
8/7/22 - 0000 60.0 69 49.7 0.0 W | 277 1.7 W | 274 0.00 0.00 58.1 86.5
8/6/22 - 2300 63.5 62 50.5 0.5 SSE | 154 4.4 N | 0 0.00 0.00 58.1 86.5
8/6/22 - 2200 66.2 60 51.7 0.3 E | 82 3.1 SSE | 160 0.00 0.00 58.1 86.5
8/6/22 - 2100 70.7 52 52.1 1.9 SE | 144 4.4 S | 186 0.00 0.00 58.1 86.5
8/6/22 - 2000 74.8 46 52.4 5.0 WSW | 244 11.8 WSW | 244 0.00 0.00 58.1 86.5
8/6/22 - 1900 79.3 42 54.1 8.9 WSW | 245 16.2 WSW | 243 0.00 0.00 58.1 86.5
8/6/22 - 1800 82.5 38 54.6 10.0 WSW | 238 16.8 SW | 236 0.00 0.00 58.1 86.5
8/6/22 - 1700 85.4 34 54.1 9.8 WSW | 239 16.8 SW | 221 0.00 0.00 58.1 86.5
8/6/22 - 1600 85.4 34 54.2 10.4 SW | 233 16.8 WSW | 248 0.00 0.00 58.1 86.1
8/6/22 - 1500 85.3 35 54.4 10.0 SW | 228 15.5 SSW | 211 0.00 0.00 58.1 85.9
8/6/22 - 1400 83.6 37 54.4 9.7 SW | 235 16.5 SW | 222 0.00 0.00 58.1 84.7
8/6/22 - 1300 81.5 40 54.8 8.8 SW | 231 15.8 SW | 228 0.00 0.00 58.1 83.2
8/6/22 - 1200 78.8 44 54.9 6.0 S | 188 14.2 SW | 215 0.00 0.00 58.1 80.8
8/6/22 - 1100 73.8 50 54.0 3.6 WNW | 287 9.5 NW | 326 0.00 0.00 58.1 76.6
8/6/22 - 1000 68.8 61 54.7 6.4 NNW | 331 12.1 NNW | 339 0.00 0.00 58.1 70.8
8/6/22 - 0900 65.4 69 55.0 8.1 NNW | 331 14.2 NNW | 335 0.00 0.00 58.1 66.4
8/6/22 - 0800 63.5 74 55.1 4.9 NNW | 327 11.5 N | 352 0.00 0.00 58.1 64.5
8/6/22 - 0700 59.7 82 54.1 0.4 W | 267 3.8 NNW | 342 0.00 0.00 58.1 61.7
8/6/22 - 0600 61.0 79 54.6 3.5 NNW | 332 9.1 N | 349 0.00 0.00 58.1 61.7
8/6/22 - 0500 61.2 80 55.1 3.9 NW | 322 8.1 NNW | 332 0.00 0.00 58.1 61.7
8/6/22 - 0400 60.0 84 55.2 1.3 WNW | 284 8.4 N | 5 0.00 0.00 58.1 61.7
8/6/22 - 0300 58.6 87 54.7 0.5 SW | 226 5.1 W | 269 0.00 0.00 58.1 61.7
8/6/22 - 0200 60.2 83 55.1 1.3 ENE | 74 5.4 NE | 51 0.00 0.00 58.2 61.7
8/6/22 - 0100 62.4 79 55.8 3.1 SW | 233 12.8 SW | 221 0.00 0.00 59.0 86.5
8/6/22 - 0000 63.2 77 56.0 7.9 WSW | 237 15.8 WSW | 245 0.00 0.00 59.0 86.5
8/5/22 - 2300 64.0 77 56.5 7.3 SW | 235 13.8 WSW | 240 0.00 0.00 59.0 86.5
8/5/22 - 2200 64.4 77 57.0 7.6 SW | 220 13.2 SW | 221 0.00 0.00 59.0 86.5
8/5/22 - 2100 66.8 71 57.1 8.1 SW | 220 13.8 SW | 220 0.00 0.00 59.0 86.5
8/5/22 - 2000 70.0 64 57.3 11.1 SSW | 207 17.2 SSW | 202 0.00 0.00 59.0 86.5
8/5/22 - 1900 75.3 55 57.8 11.6 SSW | 198 17.8 S | 184 0.00 0.00 59.0 86.5
8/5/22 - 1800 80.8 47 58.8 10.1 SSW | 199 18.5 SSW | 199 0.00 0.00 59.0 86.5
8/5/22 - 1700 83.4 44 59.1 9.2 SW | 223 16.2 SW | 224 0.00 0.00 59.0 86.5
8/5/22 - 1600 84.5 42 58.9 9.0 SW | 224 16.2 SW | 231 0.00 0.00 59.0 86.5
8/5/22 - 1500 84.8 41 58.6 7.9 SW | 227 14.8 SSW | 209 0.00 0.00 59.0 86.5
8/5/22 - 1400 84.7 41 58.6 7.9 SSW | 210 14.8 SSW | 205 0.00 0.00 59.0 85.9
8/5/22 - 1300 83.1 44 58.7 8.0 SSW | 200 13.8 SSW | 207 0.00 0.00 59.0 85.0
8/5/22 - 1200 80.4 46 57.5 5.9 SSW | 207 20.5 WSW | 237 0.00 0.00 59.0 81.5
8/5/22 - 1100 75.7 49 55.4 2.9 W | 279 8.1 SW | 214 0.00 0.00 59.0 78.7
8/5/22 - 1000 69.6 57 53.7 4.4 NW | 314 10.8 NW | 325 0.00 0.00 59.0 72.1
8/5/22 - 0900 66.2 64 53.7 5.2 NW | 323 11.1 NW | 313 0.00 0.00 59.0 68.0
8/5/22 - 0800 62.6 73 53.8 2.6 NW | 319 9.1 NNW | 334 0.00 0.00 59.0 65.7
8/5/22 - 0700 59.9 77 52.6 0.8 W | 267 4.8 SW | 231 0.00 0.00 59.0 65.7
8/5/22 - 0600 60.2 75 52.2 0.5 S | 170 4.8 SSW | 194 0.00 0.00 59.6 65.7
Max 90.4 93 59.1 12.5 - 20.9 - 0.00 0.00 60.4 91.6
Avg 69.7 59 52.3 4.7 - 9.9 - 0.00 - - -
Min 50.2 23 46.8 0.0 - 0.0 - 0.00 0.00 49.6 54.2
Total - - - - - - - 0.00 - - -
Tip: Bookmark this page for easy future reference